Time;durP1;ratioP1;P1;durP2;ratioP2;P2;SDS_P1;SDS_P2;PMS_P1;PMS_P2;Temp;Humidity;BMP_temperature;BMP_pressure;BME280_temperature;BME280_humidity;BME280_pressure;Samples;Min_cycle;Max_cycle;Signal;HPM_P1;HPM_P2
2021/07/27 00:00:20;;;;;;;;;14.50;13.25;;;;;21.85;63.33;101195.25;4963744;28;45473;-76
2021/07/27 00:02:45;;;;;;;;;17.75;13.75;;;;;21.87;63.57;101185.31;4979935;28;45275;-76
2021/07/27 00:05:11;;;;;;;;;19.25;15.50;;;;;21.87;62.79;101178.16;4978022;28;45226;-76
2021/07/27 00:07:38;;;;;;;;;16.75;13.50;;;;;21.83;63.02;101183.81;4964436;28;45429;-76
2021/07/27 00:10:06;;;;;;;;;13.00;12.00;;;;;21.84;63.46;101177.47;4968012;28;46434;-76
2021/07/27 00:12:32;;;;;;;;;17.25;15.75;;;;;21.83;63.33;101181.97;4963766;28;45338;-76
2021/07/27 00:14:57;;;;;;;;;17.50;15.75;;;;;21.84;63.42;101181.00;4971581;28;45459;-79
2021/07/27 00:17:24;;;;;;;;;16.75;13.00;;;;;21.88;63.09;101179.84;4972356;28;45284;-74
2021/07/27 00:19:50;;;;;;;;;13.75;13.50;;;;;21.91;63.19;101178.75;4980240;28;46356;-74
2021/07/27 00:22:15;;;;;;;;;17.50;16.25;;;;;21.94;62.88;101186.56;4963992;28;45441;-75
2021/07/27 00:24:40;;;;;;;;;15.00;14.25;;;;;21.94;63.00;101180.34;4964090;28;45223;-75
2021/07/27 00:27:06;;;;;;;;;16.50;14.50;;;;;21.93;63.25;101171.47;4963745;28;45525;-76
2021/07/27 00:29:33;;;;;;;;;17.00;14.50;;;;;21.91;61.99;101166.25;4963852;28;45140;-76
2021/07/27 00:31:58;;;;;;;;;17.75;14.75;;;;;21.85;62.69;101161.34;4946135;28;45378;-76
2021/07/27 00:34:25;;;;;;;;;15.25;15.00;;;;;21.79;62.42;101156.41;4958616;28;45681;-76
2021/07/27 00:36:50;;;;;;;;;19.75;15.50;;;;;21.75;62.92;101145.13;4954267;28;46403;-76
2021/07/27 00:39:16;;;;;;;;;15.25;15.25;;;;;21.72;62.59;101150.69;4967231;28;45291;-76
2021/07/27 00:41:41;;;;;;;;;18.25;17.25;;;;;21.71;63.28;101159.66;4982929;28;45353;-76
2021/07/27 00:44:07;;;;;;;;;19.25;18.00;;;;;21.72;63.04;101155.16;4983544;28;45296;-76
2021/07/27 00:46:32;;;;;;;;;18.50;15.75;;;;;21.73;62.80;101156.91;4957490;28;46935;-76
2021/07/27 00:48:59;;;;;;;;;21.25;19.00;;;;;21.73;62.83;101151.53;4946012;28;48128;-77
2021/07/27 00:51:24;;;;;;;;;23.00;19.50;;;;;21.72;63.26;101141.78;4974723;28;45219;-77
2021/07/27 00:53:50;;;;;;;;;23.25;21.00;;;;;21.74;62.68;101139.84;4980817;28;45399;-76
2021/07/27 00:56:15;;;;;;;;;20.25;19.00;;;;;21.72;62.40;101141.78;4963443;28;45402;-76
2021/07/27 00:58:41;;;;;;;;;23.75;21.75;;;;;21.70;62.83;101141.91;4963131;28;45289;-76
2021/07/27 01:01:06;;;;;;;;;28.00;22.75;;;;;21.68;62.36;101144.69;4963580;28;45228;-76
2021/07/27 01:03:32;;;;;;;;;23.50;20.00;;;;;21.70;62.77;101142.75;4963583;28;45488;-76
2021/07/27 01:05:59;;;;;;;;;25.00;21.00;;;;;21.69;62.43;101140.19;4974442;28;45451;-75
2021/07/27 01:08:24;;;;;;;;;21.75;21.75;;;;;21.65;62.85;101154.78;4973326;28;47076;-76
2021/07/27 01:10:49;;;;;;;;;23.50;20.25;;;;;21.63;62.82;101160.22;4966867;28;45441;-77
2021/07/27 01:13:15;;;;;;;;;17.75;17.75;;;;;21.63;62.51;101162.06;4959723;28;45886;-76
2021/07/27 01:15:40;;;;;;;;;18.50;16.75;;;;;21.61;62.61;101150.63;4948928;28;45596;-76
2021/07/27 01:18:09;;;;;;;;;19.75;17.50;;;;;21.54;62.58;101155.56;4965252;28;45498;-74
2021/07/27 01:20:51;;;;;;;;;24.75;22.50;;;;;21.51;63.09;101159.31;4973253;28;45413;-74
2021/07/27 01:39:44;;;;;;;;;21.00;19.50;;;;;21.22;63.36;101148.91;4962675;28;45322;-76
2021/07/27 01:42:14;;;;;;;;;18.25;16.00;;;;;21.21;63.69;101147.22;4962643;28;45386;-76
2021/07/27 01:44:46;;;;;;;;;19.50;18.25;;;;;21.22;63.82;101148.91;4962713;28;45233;-75
2021/07/27 01:47:15;;;;;;;;;21.75;18.00;;;;;21.20;63.77;101142.84;4962433;28;45553;-75
2021/07/27 01:49:42;;;;;;;;;20.00;15.50;;;;;21.24;63.71;101141.63;4962544;28;45537;-74
2021/07/27 01:52:10;;;;;;;;;19.50;17.25;;;;;21.21;63.39;101148.06;4966228;28;45468;-75
2021/07/27 01:54:44;;;;;;;;;19.00;16.00;;;;;21.19;63.71;101138.44;4969612;28;45294;-75
2021/07/27 01:57:11;;;;;;;;;18.75;18.75;;;;;21.19;63.40;101139.31;4981868;28;46328;-75
2021/07/27 01:59:40;;;;;;;;;19.75;19.25;;;;;21.20;64.17;101137.50;4981874;28;46354;-75
2021/07/27 02:02:07;;;;;;;;;14.75;14.25;;;;;21.27;63.63;101141.44;4968754;28;45461;-75
2021/07/27 02:04:32;;;;;;;;;20.25;15.75;;;;;21.31;63.72;101132.22;4962618;28;45301;-75
2021/07/27 02:06:58;;;;;;;;;16.25;14.00;;;;;21.33;63.57;101130.31;4962322;28;45368;-75
2021/07/27 02:09:24;;;;;;;;;18.75;14.00;;;;;21.34;63.79;101123.97;4962039;28;45678;-75
2021/07/27 02:11:54;;;;;;;;;25.00;16.75;;;;;21.33;63.59;101118.75;4968751;28;45366;-76
2021/07/27 02:14:19;;;;;;;;;16.25;13.50;;;;;21.37;63.47;101130.91;4962239;28;45530;-76
2021/07/27 02:16:45;;;;;;;;;13.75;13.75;;;;;21.41;63.74;101127.03;4968415;28;45612;-76
2021/07/27 02:19:10;;;;;;;;;13.25;11.75;;;;;21.43;63.79;101129.63;4981581;28;45220;-75
2021/07/27 02:21:36;;;;;;;;;17.50;16.50;;;;;21.44;63.41;101125.97;4976697;28;45270;-76
2021/07/27 02:24:02;;;;;;;;;16.50;15.75;;;;;21.49;63.44;101121.13;4981358;28;45231;-74
2021/07/27 02:26:28;;;;;;;;;14.00;12.00;;;;;21.51;63.42;101127.22;4962108;28;45553;-73
2021/07/27 02:28:54;;;;;;;;;14.50;14.50;;;;;21.53;63.38;101121.78;4961830;28;46240;-73
2021/07/27 02:31:26;;;;;;;;;18.75;14.75;;;;;21.49;63.56;101118.47;4972451;28;45335;-73
2021/07/27 02:33:52;;;;;;;;;18.50;15.25;;;;;21.44;63.06;101120.63;4950206;28;45254;-73
2021/07/27 02:36:17;;;;;;;;;16.25;13.25;;;;;21.38;63.47;101113.06;4979383;28;45247;-73
2021/07/27 02:38:43;;;;;;;;;18.50;14.75;;;;;21.36;63.21;101116.69;4969851;28;46286;-73
2021/07/27 02:41:12;;;;;;;;;16.25;15.25;;;;;21.37;63.64;101112.22;4961565;28;45301;-73
2021/07/27 02:43:37;;;;;;;;;17.75;17.50;;;;;21.40;62.95;101112.00;4961839;28;45467;-73
2021/07/27 02:46:02;;;;;;;;;14.00;13.25;;;;;21.43;63.38;101110.91;4961546;28;45327;-73
2021/07/27 02:48:27;;;;;;;;;17.00;15.00;;;;;21.46;63.57;101113.34;4961641;28;48150;-72
2021/07/27 02:51:02;;;;;;;;;16.00;13.25;;;;;21.48;63.39;101104.22;4967084;28;45379;-72
2021/07/27 02:53:30;;;;;;;;;17.50;15.25;;;;;21.50;63.11;101108.63;4974211;28;45277;-72
2021/07/27 02:55:58;;;;;;;;;14.75;13.50;;;;;21.54;62.81;101110.09;4962007;28;46904;-72
2021/07/27 02:58:23;;;;;;;;;13.25;13.25;;;;;21.55;62.91;101112.69;4961181;28;46353;-72
2021/07/27 03:00:48;;;;;;;;;12.00;11.00;;;;;21.57;63.25;101118.75;4961506;28;45323;-72
2021/07/27 03:03:14;;;;;;;;;16.50;14.00;;;;;21.62;62.69;101114.88;4961572;28;45307;-72
2021/07/27 03:05:39;;;;;;;;;17.50;15.00;;;;;21.61;62.53;101113.19;4968632;28;45359;-72
2021/07/27 03:08:10;;;;;;;;;17.00;15.00;;;;;21.63;63.22;101108.56;4968905;28;45409;-72
2021/07/27 03:10:35;;;;;;;;;14.00;13.50;;;;;21.60;62.86;101106.97;4943890;28;45522;-72
2021/07/27 03:13:00;;;;;;;;;15.50;14.50;;;;;21.55;62.73;101106.47;4961320;28;45284;-73
2021/07/27 03:15:29;;;;;;;;;21.25;15.50;;;;;21.53;62.77;101109.25;4944122;28;46130;-74
2021/07/27 03:17:57;;;;;;;;;15.75;15.50;;;;;21.53;62.80;101101.22;4961318;28;46435;-74
2021/07/27 03:20:24;;;;;;;;;20.50;15.75;;;;;21.55;62.83;101101.97;4953237;28;46240;-74
2021/07/27 03:22:50;;;;;;;;;18.00;15.25;;;;;21.56;62.66;101097.47;4961303;28;45179;-74
2021/07/27 03:25:18;;;;;;;;;15.25;13.75;;;;;21.57;62.61;101100.03;4961288;28;45257;-72
2021/07/27 03:27:44;;;;;;;;;19.75;15.00;;;;;21.60;62.76;101098.97;4960812;28;46277;-72
2021/07/27 03:30:10;;;;;;;;;15.75;15.50;;;;;21.63;62.75;101100.56;4961251;28;45251;-72
2021/07/27 03:32:36;;;;;;;;;16.50;14.25;;;;;21.61;62.49;101091.81;4968450;28;45377;-72
2021/07/27 03:35:02;;;;;;;;;12.50;10.00;;;;;21.64;62.73;101083.53;4966726;28;45251;-72
2021/07/27 03:37:27;;;;;;;;;15.50;14.50;;;;;21.66;62.44;101081.56;4961077;28;46581;-76
2021/07/27 03:39:52;;;;;;;;;15.50;13.50;;;;;21.67;62.43;101080.63;4960808;28;45374;-80
2021/07/27 03:42:18;;;;;;;;;15.00;13.00;;;;;21.67;62.93;101070.78;4960954;28;45481;-82
2021/07/27 03:44:45;;;;;;;;;13.00;11.75;;;;;21.66;62.60;101076.22;4960836;28;45200;-83
2021/07/27 03:47:10;;;;;;;;;14.75;12.00;;;;;21.66;62.47;101073.56;4962980;28;46449;-83
2021/07/27 03:49:35;;;;;;;;;14.00;13.75;;;;;21.67;62.72;101069.94;4944323;28;45214;-83
2021/07/27 03:52:02;;;;;;;;;16.50;15.50;;;;;21.70;63.12;101067.03;4973256;28;45216;-80
2021/07/27 03:54:34;;;;;;;;;13.75;12.75;;;;;21.67;62.34;101067.25;4961490;28;45556;-76
2021/07/27 03:57:03;;;;;;;;;14.75;13.25;;;;;21.67;62.64;101061.91;4949842;28;48207;-76
2021/07/27 03:59:30;;;;;;;;;15.75;15.25;;;;;21.67;62.38;101068.09;4978839;28;45352;-78
2021/07/27 04:01:55;;;;;;;;;14.75;14.25;;;;;21.68;62.55;101063.63;4980295;28;45437;-78
2021/07/27 04:04:20;;;;;;;;;16.00;14.50;;;;;21.70;62.43;101061.69;4971686;28;45547;-74
2021/07/27 04:06:46;;;;;;;;;16.75;14.00;;;;;21.68;62.45;101055.59;4960743;28;46149;-74
2021/07/27 04:09:12;;;;;;;;;19.75;15.25;;;;;21.65;62.78;101063.84;4960591;28;45339;-74
2021/07/27 04:11:37;;;;;;;;;13.25;12.25;;;;;21.64;62.65;101056.78;4960509;28;45239;-74
2021/07/27 04:14:07;;;;;;;;;15.25;15.25;;;;;21.63;62.22;101063.13;4964326;28;48409;-72
2021/07/27 04:16:32;;;;;;;;;10.00;9.25;;;;;21.63;63.02;101060.44;4974335;28;47025;-77
2021/07/27 04:18:58;;;;;;;;;13.00;12.00;;;;;21.63;62.65;101055.91;4960552;28;45307;-84
2021/07/27 04:21:25;;;;;;;;;12.25;11.25;;;;;21.62;62.97;101056.03;4944319;28;45421;-84
2021/07/27 04:23:51;;;;;;;;;13.75;12.75;;;;;21.61;62.39;101070.41;4975866;28;45445;-84
2021/07/27 04:26:16;;;;;;;;;13.25;12.50;;;;;21.59;62.80;101075.84;4976173;28;45433;-84
2021/07/27 04:28:42;;;;;;;;;16.25;15.75;;;;;21.59;62.92;101071.34;4942993;28;45357;-76
2021/07/27 04:31:07;;;;;;;;;17.25;12.25;;;;;21.58;62.78;101069.63;4960213;28;45425;-74
2021/07/27 04:33:33;;;;;;;;;19.25;16.25;;;;;21.59;62.41;101081.19;4960516;28;45450;-71
2021/07/27 04:35:58;;;;;;;;;15.67;15.00;;;;;21.57;62.95;101077.78;4963957;28;46482;-71
2021/07/27 04:38:23;;;;;;;;;12.50;11.00;;;;;21.48;63.18;101079.34;4960098;28;45271;-74
2021/07/27 04:40:52;;;;;;;;;13.75;12.00;;;;;21.45;62.89;101077.75;4960464;28;45287;-75
2021/07/27 04:43:18;;;;;;;;;15.25;14.75;;;;;21.47;62.68;101077.63;4960226;28;45340;-75
2021/07/27 04:45:43;;;;;;;;;14.75;14.75;;;;;21.51;62.45;101073.75;4960294;28;46551;-76
2021/07/27 04:48:08;;;;;;;;;17.00;16.00;;;;;21.53;62.88;101063.78;4947864;28;45908;-76
2021/07/27 04:50:38;;;;;;;;;14.50;13.00;;;;;21.53;63.39;101058.44;4963505;28;45690;-76
2021/07/27 04:53:09;;;;;;;;;18.75;15.25;;;;;21.54;62.59;101054.81;4965893;28;45587;-75
2021/07/27 04:55:35;;;;;;;;;15.00;12.50;;;;;21.59;62.85;101066.00;4951794;28;45654;-75
2021/07/27 04:58:03;;;;;;;;;18.25;14.25;;;;;21.62;62.62;101053.38;4962426;28;45306;-75
2021/07/27 05:00:29;;;;;;;;;17.50;14.50;;;;;21.65;62.58;101064.69;4962938;28;45420;-75
2021/07/27 05:02:57;;;;;;;;;16.00;14.25;;;;;21.68;62.56;101066.28;4962546;28;45282;-75
2021/07/27 05:05:22;;;;;;;;;16.75;15.25;;;;;21.72;62.13;101067.75;4967901;28;45533;-75
2021/07/27 05:07:47;;;;;;;;;16.25;16.25;;;;;21.71;62.79;101066.03;4978656;28;45227;-76
2021/07/27 05:10:13;;;;;;;;;17.00;15.25;;;;;21.76;62.42;101068.38;4970007;28;45324;-76
2021/07/27 05:12:39;;;;;;;;;16.00;15.25;;;;;21.76;62.08;101063.88;4963471;28;45363;-77
2021/07/27 05:15:05;;;;;;;;;16.25;13.25;;;;;21.72;62.04;101058.88;4963151;28;45524;-77
2021/07/27 05:17:31;;;;;;;;;16.25;13.50;;;;;21.62;62.14;101048.03;4962073;28;45593;-77
2021/07/27 05:19:56;;;;;;;;;13.25;13.25;;;;;21.59;62.23;101063.34;4962587;28;45381;-76
2021/07/27 05:22:23;;;;;;;;;17.00;13.25;;;;;21.58;62.38;101064.28;4962014;28;45496;-83
2021/07/27 05:24:55;;;;;;;;;16.75;14.50;;;;;21.54;62.64;101073.53;4962385;28;46482;-79
2021/07/27 05:27:25;;;;;;;;;71.25;54.50;;;;;21.43;62.53;101078.81;4962190;28;45855;-78
2021/07/27 05:29:54;;;;;;;;;72.75;58.50;;;;;21.39;62.59;101088.03;4944858;28;45395;-76
2021/07/27 05:32:20;;;;;;;;;36.75;31.00;;;;;21.36;62.82;101081.94;4963412;28;46042;-74
2021/07/27 05:34:46;;;;;;;;;74.75;58.50;;;;;21.38;63.12;101078.31;4963368;28;45391;-74
2021/07/27 05:37:11;;;;;;;;;87.50;73.25;;;;;21.41;62.86;101075.41;4944625;28;45342;-76
2021/07/27 05:39:37;;;;;;;;;99.00;84.00;;;;;21.44;62.89;101080.50;4944598;28;45435;-76
2021/07/27 05:42:02;;;;;;;;;59.00;45.75;;;;;21.44;62.74;101088.53;4969517;28;45584;-75
2021/07/27 05:44:28;;;;;;;;;58.75;47.50;;;;;21.45;62.91;101096.47;4969535;28;47757;-75
2021/07/27 05:46:54;;;;;;;;;56.25;44.00;;;;;21.49;62.40;101107.78;4974928;28;45412;-75
2021/07/27 05:49:21;;;;;;;;;53.00;40.75;;;;;21.51;62.53;101105.81;4975690;28;45262;-76
2021/07/27 05:51:50;;;;;;;;;43.50;35.75;;;;;21.55;62.15;101096.63;4978977;28;45254;-73
2021/07/27 05:54:21;;;;;;;;;21.00;18.75;;;;;21.60;62.61;101101.63;4968908;28;46243;-74
2021/07/27 05:56:51;;;;;;;;;38.00;33.50;;;;;21.58;62.38;101114.28;4963085;28;45288;-73
2021/07/27 05:59:18;;;;;;;;;37.00;32.75;;;;;21.57;62.98;101112.56;4962639;28;45470;-74
2021/07/27 06:01:43;;;;;;;;;22.50;19.25;;;;;21.57;62.62;101121.44;4974750;28;45289;-74
2021/07/27 06:04:09;;;;;;;;;29.25;22.75;;;;;21.54;62.06;101121.66;4981899;28;45261;-74
2021/07/27 06:06:35;;;;;;;;;24.50;24.25;;;;;21.53;62.33;101119.94;4972576;28;45211;-74
2021/07/27 06:09:06;;;;;;;;;17.50;13.75;;;;;21.51;62.86;101118.38;4961637;28;45244;-74
2021/07/27 06:11:33;;;;;;;;;17.25;16.50;;;;;21.48;62.95;101119.44;4970516;28;45456;-74
2021/07/27 06:14:00;;;;;;;;;23.75;20.75;;;;;21.44;62.90;101124.16;4965568;28;45230;-74
2021/07/27 06:16:26;;;;;;;;;16.25;14.25;;;;;21.48;62.44;101132.81;4967064;28;45511;-74
2021/07/27 06:18:51;;;;;;;;;22.75;16.50;;;;;21.46;62.38;101140.94;4981235;28;45453;-74
2021/07/27 06:21:16;;;;;;;;;20.00;16.50;;;;;21.43;62.67;101129.63;4969464;28;45571;-73
2021/07/27 06:23:42;;;;;;;;;19.00;17.00;;;;;21.38;62.63;101132.63;4961427;28;46364;-73
2021/07/27 06:26:07;;;;;;;;;19.50;15.50;;;;;21.37;62.49;101136.25;4970383;28;45150;-73
2021/07/27 06:28:33;;;;;;;;;16.50;15.00;;;;;21.35;62.94;101125.69;4967031;28;45236;-75
2021/07/27 06:31:03;;;;;;;;;15.25;13.25;;;;;21.31;63.06;101118.84;4962098;28;45413;-74
2021/07/27 06:33:28;;;;;;;;;17.25;15.50;;;;;21.29;62.23;101139.50;4934226;28;46237;-73
2021/07/27 06:35:58;;;;;;;;;14.75;11.50;;;;;21.26;62.62;101139.72;4978722;28;46976;-72
2021/07/27 06:38:24;;;;;;;;;19.00;16.00;;;;;21.27;62.45;101145.91;4972712;28;45389;-72
2021/07/27 06:40:50;;;;;;;;;16.75;16.00;;;;;21.28;62.46;101142.28;4972232;28;45537;-73
2021/07/27 06:43:16;;;;;;;;;15.25;13.75;;;;;21.24;62.19;101141.63;4969964;28;45491;-73
2021/07/27 06:45:42;;;;;;;;;18.00;14.25;;;;;21.20;62.51;101150.84;4966088;28;45295;-73
2021/07/27 06:48:10;;;;;;;;;16.75;14.75;;;;;21.22;62.53;101140.91;4962997;28;45491;-73
2021/07/27 06:50:36;;;;;;;;;17.25;15.25;;;;;21.28;62.61;101139.63;4960865;28;47047;-73
2021/07/27 06:53:02;;;;;;;;;15.25;14.25;;;;;21.30;62.41;101148.38;4967346;28;46365;-73
2021/07/27 06:55:27;;;;;;;;;16.50;14.50;;;;;21.28;62.66;101152.97;4965678;28;45295;-73
2021/07/27 06:57:52;;;;;;;;;14.50;13.00;;;;;21.29;62.44;101152.00;4951527;28;45310;-73
2021/07/27 07:00:18;;;;;;;;;15.75;14.25;;;;;21.31;62.53;101137.56;4946218;28;46989;-73
2021/07/27 07:02:43;;;;;;;;;15.25;13.75;;;;;21.33;62.79;101156.19;4968729;28;46344;-75
2021/07/27 07:05:09;;;;;;;;;16.75;14.50;;;;;21.30;62.54;101154.56;4980754;28;45369;-73
2021/07/27 07:07:35;;;;;;;;;16.25;16.25;;;;;21.25;63.15;101165.59;4969152;28;45497;-73
2021/07/27 07:10:00;;;;;;;;;16.75;13.75;;;;;21.21;62.44;101160.59;4970362;28;45324;-73
2021/07/27 07:12:26;;;;;;;;;15.75;12.00;;;;;21.19;63.06;101157.16;4966686;28;45336;-73
2021/07/27 07:14:58;;;;;;;;;14.75;13.50;;;;;21.23;62.54;101156.00;4979167;28;45273;-73
2021/07/27 07:17:25;;;;;;;;;19.00;16.00;;;;;21.24;63.20;101161.22;4972616;28;46773;-73
2021/07/27 07:19:53;;;;;;;;;15.25;13.50;;;;;21.28;63.51;101161.84;4967830;28;45290;-74
2021/07/27 07:22:19;;;;;;;;;17.00;14.75;;;;;21.31;63.35;101160.78;4976733;28;45333;-73
2021/07/27 07:24:46;;;;;;;;;18.50;18.50;;;;;21.26;62.96;101158.41;4972568;28;45212;-73
2021/07/27 07:27:11;;;;;;;;;18.00;16.00;;;;;21.22;62.59;101159.63;4965598;28;45451;-73
2021/07/27 07:29:36;;;;;;;;;16.50;14.25;;;;;21.23;63.28;101169.34;4970185;28;45270;-73
2021/07/27 07:32:02;;;;;;;;;13.75;13.00;;;;;21.19;62.74;101168.69;4970290;28;45504;-73
2021/07/27 07:34:28;;;;;;;;;16.00;14.75;;;;;21.20;63.00;101165.09;4962362;28;45139;-74
2021/07/27 07:36:53;;;;;;;;;12.00;12.00;;;;;21.28;63.20;101174.38;4975844;28;45397;-74
2021/07/27 07:39:19;;;;;;;;;15.00;14.25;;;;;21.30;62.60;101167.94;4973924;28;45410;-73
2021/07/27 07:41:44;;;;;;;;;18.50;13.75;;;;;21.32;62.59;101167.81;4972299;28;45945;-74
2021/07/27 07:44:10;;;;;;;;;15.75;15.75;;;;;21.39;62.67;101163.75;4979378;28;45259;-74
2021/07/27 07:46:35;;;;;;;;;16.75;16.75;;;;;21.43;62.27;101167.06;4961464;28;45746;-74
2021/07/27 07:49:00;;;;;;;;;20.25;14.75;;;;;21.47;61.91;101166.72;4962320;28;45271;-72
2021/07/27 07:51:26;;;;;;;;;16.00;13.75;;;;;21.53;61.50;101170.75;4960632;28;45311;-72
2021/07/27 07:53:51;;;;;;;;;18.75;16.75;;;;;21.55;61.47;101170.66;4963562;28;45287;-72
2021/07/27 07:56:17;;;;;;;;;16.00;15.50;;;;;21.58;61.66;101173.09;4960561;28;45314;-72
2021/07/27 07:58:44;;;;;;;;;13.25;10.50;;;;;21.58;61.20;101176.59;4960535;28;45357;-72
2021/07/27 08:01:09;;;;;;;;;16.00;16.00;;;;;21.62;60.95;101166.56;4960619;28;46320;-72
2021/07/27 08:03:35;;;;;;;;;12.00;11.00;;;;;21.65;60.55;101171.69;4960717;28;45321;-72
2021/07/27 08:06:00;;;;;;;;;12.25;10.50;;;;;21.70;61.09;101180.19;4960744;28;45286;-72
2021/07/27 08:08:25;;;;;;;;;17.75;15.00;;;;;21.71;60.55;101173.03;4965872;28;45406;-72
2021/07/27 08:10:51;;;;;;;;;11.75;10.75;;;;;21.73;60.69;101165.75;4966997;28;45239;-72
2021/07/27 08:13:16;;;;;;;;;15.25;13.75;;;;;21.76;60.72;101162.00;4960587;28;45275;-72
2021/07/27 08:15:41;;;;;;;;;15.75;11.25;;;;;21.76;60.80;101162.84;4960696;28;45226;-73
2021/07/27 08:18:07;;;;;;;;;17.75;14.75;;;;;21.78;60.74;101160.09;4960424;28;45552;-72
2021/07/27 08:20:32;;;;;;;;;14.75;12.00;;;;;21.79;60.81;101170.66;4966997;28;45238;-72
2021/07/27 08:22:58;;;;;;;;;15.25;15.25;;;;;21.77;60.63;101161.91;4973334;28;45233;-72
2021/07/27 08:25:24;;;;;;;;;14.00;12.75;;;;;21.77;60.43;101159.22;4967169;28;45354;-72
2021/07/27 08:27:49;;;;;;;;;13.25;13.00;;;;;21.77;60.79;101155.69;4971257;28;45607;-72
2021/07/27 08:30:17;;;;;;;;;13.75;11.25;;;;;21.76;60.82;101153.97;4961068;28;46244;-73
2021/07/27 08:32:50;;;;;;;;;17.00;15.25;;;;;21.77;60.43;101153.88;4954775;28;45327;-73
2021/07/27 08:35:18;;;;;;;;;16.75;12.00;;;;;21.77;60.58;101161.91;4966569;28;45381;-73
2021/07/27 08:37:45;;;;;;;;;12.50;11.25;;;;;21.73;60.79;101157.72;4981667;28;45539;-73
2021/07/27 08:40:11;;;;;;;;;14.50;11.75;;;;;21.76;60.85;101159.31;4975982;28;45281;-73
2021/07/27 08:42:39;;;;;;;;;18.50;17.50;;;;;21.78;62.38;101149.38;4977577;28;45591;-73
2021/07/27 08:45:06;;;;;;;;;15.75;14.25;;;;;21.77;62.12;101142.31;4959165;28;45476;-72
2021/07/27 08:47:32;;;;;;;;;16.50;13.75;;;;;21.77;61.08;101153.88;4972847;28;45433;-72
2021/07/27 08:50:00;;;;;;;;;17.50;16.00;;;;;21.77;61.36;101159.22;4961522;28;47063;-72
2021/07/27 08:52:25;;;;;;;;;16.25;16.25;;;;;21.75;61.53;101166.50;4963504;28;45803;-73
2021/07/27 08:54:51;;;;;;;;;15.00;12.25;;;;;21.70;61.42;101155.28;4964671;28;45489;-73
2021/07/27 08:57:17;;;;;;;;;19.25;15.00;;;;;21.61;61.71;101162.16;4963082;28;45478;-72
2021/07/27 08:59:42;;;;;;;;;17.25;15.25;;;;;21.52;61.64;101153.00;4963174;28;46417;-72
2021/07/27 09:02:08;;;;;;;;;13.50;12.75;;;;;21.45;61.86;101162.44;4963338;28;45369;-72
2021/07/27 09:04:33;;;;;;;;;16.00;12.25;;;;;21.35;62.23;101165.78;4965293;28;45361;-73
2021/07/27 09:06:59;;;;;;;;;20.50;14.50;;;;;21.33;62.70;101166.88;4963128;28;45531;-73
2021/07/27 09:09:35;;;;;;;;;17.75;16.00;;;;;21.30;62.90;101169.75;4962013;28;47910;-73
2021/07/27 09:12:03;;;;;;;;;15.00;15.00;;;;;21.27;63.42;101173.50;4968272;28;45615;-73
2021/07/27 09:14:29;;;;;;;;;17.75;17.75;;;;;21.24;64.29;101177.25;4963703;28;45293;-73
2021/07/27 09:16:57;;;;;;;;;15.75;15.75;;;;;21.24;63.96;101171.03;4966402;28;45219;-72
2021/07/27 09:19:22;;;;;;;;;17.00;17.00;;;;;21.21;64.02;101165.94;4966671;28;46374;-73
2021/07/27 09:21:48;;;;;;;;;21.75;18.75;;;;;21.14;63.90;101169.03;4962924;28;45331;-73
2021/07/27 09:24:19;;;;;;;;;18.50;15.50;;;;;21.12;64.00;101165.63;4971893;28;45293;-73
2021/07/27 09:27:02;;;;;;;;;21.75;20.25;;;;;21.12;64.19;101164.75;4973618;28;45571;-73
2021/07/27 09:29:29;;;;;;;;;18.50;17.25;;;;;21.11;64.27;101163.06;4962872;28;46442;-72
2021/07/27 09:31:57;;;;;;;;;17.25;14.50;;;;;21.04;64.02;101167.97;4970273;28;45549;-72
2021/07/27 09:34:24;;;;;;;;;21.00;16.25;;;;;21.00;64.22;101172.69;4963220;28;45227;-72
2021/07/27 09:37:01;;;;;;;;;21.25;16.25;;;;;20.94;65.01;101172.25;4962552;28;45480;-72
2021/07/27 09:39:26;;;;;;;;;16.50;15.00;;;;;20.90;64.54;101172.47;4974289;28;46127;-72
2021/07/27 09:42:00;;;;;;;;;16.75;16.75;;;;;20.91;65.08;101170.66;4981290;28;45302;-72
2021/07/27 09:44:28;;;;;;;;;16.00;16.00;;;;;20.90;64.52;101175.13;4977867;28;45539;-72
2021/07/27 09:46:55;;;;;;;;;19.00;16.75;;;;;20.87;65.08;101177.16;4978484;28;45524;-73
2021/07/27 09:49:21;;;;;;;;;17.75;16.75;;;;;20.83;65.49;101173.88;4964378;28;46431;-72
2021/07/27 09:51:48;;;;;;;;;18.25;14.50;;;;;20.86;65.47;101175.47;4954519;28;45979;-73
2021/07/27 09:54:14;;;;;;;;;14.75;13.00;;;;;20.81;65.44;101167.78;4963155;28;45335;-73
2021/07/27 09:56:40;;;;;;;;;17.50;15.25;;;;;20.85;65.54;101182.63;4950743;28;45442;-72
2021/07/27 09:59:08;;;;;;;;;15.25;12.75;;;;;20.89;65.19;101181.44;4969150;28;47040;-72
2021/07/27 10:01:34;;;;;;;;;19.00;15.75;;;;;20.88;65.19;101181.56;4963532;28;45429;-73
2021/07/27 10:04:03;;;;;;;;;21.50;17.75;;;;;20.87;65.54;101188.69;4978684;28;45381;-73
2021/07/27 10:06:33;;;;;;;;;9.75;9.00;;;;;20.86;65.21;101189.69;4969445;28;45259;-73
2021/07/27 10:09:01;;;;;;;;;16.25;14.50;;;;;20.87;65.88;101201.19;4966181;28;46280;-73
2021/07/27 10:11:37;;;;;;;;;18.50;14.00;;;;;20.89;65.49;101200.13;4964931;28;45862;-73
2021/07/27 10:14:10;;;;;;;;;14.25;12.25;;;;;20.90;66.07;101199.19;4973293;28;45180;-73
2021/07/27 10:16:36;;;;;;;;;16.25;15.00;;;;;20.94;65.58;101205.16;4969024;28;45338;-73
2021/07/27 10:19:12;;;;;;;;;17.75;14.25;;;;;20.97;65.35;101193.41;4962263;28;45394;-73
2021/07/27 10:21:38;;;;;;;;;20.75;15.75;;;;;20.98;66.71;101195.13;4962118;28;45565;-73
2021/07/27 10:24:20;;;;;;;;;17.50;13.75;;;;;21.00;66.01;101199.41;4962184;28;45303;-74
2021/07/27 10:26:47;;;;;;;;;14.25;14.25;;;;;21.02;65.40;101196.63;4972530;28;45429;-73
2021/07/27 10:29:13;;;;;;;;;15.75;13.75;;;;;21.04;65.45;101189.34;4962345;28;47838;-73
2021/07/27 10:31:44;;;;;;;;;14.75;14.25;;;;;21.10;65.40;101198.75;4979257;28;45386;-73
2021/07/27 10:34:12;;;;;;;;;17.75;14.75;;;;;21.13;65.41;101191.41;4959259;28;45354;-73
2021/07/27 10:36:38;;;;;;;;;18.75;16.00;;;;;21.20;65.92;101198.97;4965624;28;45224;-73
2021/07/27 10:39:09;;;;;;;;;15.75;14.50;;;;;21.21;64.83;101190.81;4961872;28;45439;-74
2021/07/27 10:41:36;;;;;;;;;15.00;13.75;;;;;21.26;64.99;101198.50;4964116;28;45497;-74
2021/07/27 10:44:11;;;;;;;;;17.25;15.75;;;;;21.31;64.94;101193.69;4977096;28;45250;-74
2021/07/27 10:46:38;;;;;;;;;14.50;14.50;;;;;21.35;65.31;101194.34;4961744;28;45276;-74
2021/07/27 10:49:04;;;;;;;;;17.25;14.50;;;;;21.34;66.07;101179.25;4951006;28;47399;-74
2021/07/27 10:51:36;;;;;;;;;19.25;17.25;;;;;21.31;65.81;101172.31;4967386;28;45717;-74
2021/07/27 10:54:02;;;;;;;;;12.25;10.50;;;;;21.31;65.78;101166.97;4963587;28;45507;-75
2021/07/27 10:56:29;;;;;;;;;15.75;15.25;;;;;21.32;65.21;101176.69;4980914;28;45305;-75
2021/07/27 10:58:54;;;;;;;;;14.50;12.25;;;;;21.35;65.75;101165.78;4968880;28;45478;-75
2021/07/27 11:01:27;;;;;;;;;13.50;11.25;;;;;21.41;65.08;101169.00;4973807;28;45306;-75
2021/07/27 11:03:53;;;;;;;;;15.25;14.00;;;;;21.44;65.67;101163.41;4981263;28;45243;-75
2021/07/27 11:06:20;;;;;;;;;12.50;11.75;;;;;21.50;65.45;101162.97;4977312;28;45331;-75
2021/07/27 11:08:45;;;;;;;;;17.50;15.25;;;;;21.56;66.83;101162.50;4974976;28;46245;-75
2021/07/27 11:11:13;;;;;;;;;17.75;13.75;;;;;21.57;65.08;101169.56;4966157;28;45300;-75
2021/07/27 11:13:39;;;;;;;;;14.75;14.75;;;;;21.59;64.57;101181.00;4980565;28;45444;-75
2021/07/27 11:16:05;;;;;;;;;15.00;14.00;;;;;21.59;64.78;101172.97;4980545;28;45606;-75
2021/07/27 11:18:31;;;;;;;;;15.50;15.50;;;;;21.57;65.20;101174.06;4978210;28;45318;-76
2021/07/27 11:20:59;;;;;;;;;16.50;12.75;;;;;21.58;64.80;101181.13;4975604;28;45225;-76
2021/07/27 11:23:30;;;;;;;;;14.25;12.25;;;;;21.58;64.51;101179.28;4965329;28;45429;-75